Time;durP1;ratioP1;P1;durP2;ratioP2;P2;SDS_P1;SDS_P2;PMS_P1;PMS_P2;Temp;Humidity;BMP_temperature;BMP_pressure;BME280_temperature;BME280_humidity;BME280_pressure;Samples;Min_cycle;Max_cycle;Signal;HPM_P1;HPM_P2
2022/10/03 00:00:17;;;;;;;5.70;5.20;;;12.50;99.90;;;;;;5090859;28;20455;-56
2022/10/03 00:03:14;;;;;;;5.80;5.30;;;12.50;99.90;;;;;;5091981;28;20512;-55
2022/10/03 00:05:56;;;;;;;4.70;4.30;;;12.40;99.90;;;;;;5090724;28;20449;-56
2022/10/03 00:08:40;;;;;;;5.60;5.10;;;12.30;99.90;;;;;;5090235;28;20464;-56
2022/10/03 00:11:16;;;;;;;5.20;4.70;;;12.30;99.90;;;;;;5091680;28;20435;-56
2022/10/03 00:13:55;;;;;;;5.60;5.10;;;12.30;99.90;;;;;;5091895;28;20427;-56
2022/10/03 00:16:35;;;;;;;6.20;5.00;;;12.20;99.90;;;;;;5089842;28;20430;-56
2022/10/03 00:19:12;;;;;;;6.90;6.20;;;12.20;99.90;;;;;;5092218;28;20496;-56
2022/10/03 00:21:55;;;;;;;6.37;5.77;;;12.20;99.90;;;;;;5089913;28;20463;-57
2022/10/03 00:24:35;;;;;;;8.03;7.20;;;12.10;99.90;;;;;;5091643;28;20428;-56
2022/10/03 00:27:08;;;;;;;8.57;7.17;;;12.10;99.90;;;;;;5091536;28;20460;-56
2022/10/03 00:30:00;;;;;;;7.80;7.00;;;12.10;99.90;;;;;;5089841;28;20463;-55
2022/10/03 00:32:45;;;;;;;8.73;7.07;;;12.10;99.90;;;;;;5092181;28;20475;-55
2022/10/03 00:35:29;;;;;;;8.10;7.30;;;12.20;99.90;;;;;;5091954;28;20424;-56
2022/10/03 00:38:08;;;;;;;9.17;8.00;;;12.20;99.90;;;;;;5089959;28;20949;-56
2022/10/03 00:40:55;;;;;;;9.43;8.50;;;12.20;99.90;;;;;;5091424;28;20932;-56
2022/10/03 00:43:51;;;;;;;11.13;8.73;;;12.20;99.90;;;;;;5091571;28;20467;-55
2022/10/03 00:46:50;;;;;;;10.27;9.17;;;12.20;99.90;;;;;;5087654;28;20456;-55
2022/10/03 00:49:53;;;;;;;10.47;9.43;;;12.10;99.90;;;;;;5091442;28;20474;-56
2022/10/03 00:52:41;;;;;;;9.10;8.23;;;12.10;99.90;;;;;;5088892;28;20479;-56
2022/10/03 00:55:20;;;;;;;9.80;8.67;;;12.10;99.90;;;;;;5091760;28;20441;-56
2022/10/03 00:58:21;;;;;;;10.17;9.03;;;12.10;99.90;;;;;;5091546;28;20449;-56
2022/10/03 01:00:51;;;;;;;11.43;10.33;;;12.20;99.90;;;;;;5089318;28;20914;-56
2022/10/03 01:03:35;;;;;;;9.30;8.40;;;12.20;99.90;;;;;;5091568;28;20542;-56
2022/10/03 01:06:18;;;;;;;10.50;9.33;;;12.20;99.90;;;;;;5089292;28;20431;-55
2022/10/03 01:09:13;;;;;;;10.57;8.53;;;12.20;99.90;;;;;;5091353;28;20467;-56
2022/10/03 01:11:53;;;;;;;11.10;8.60;;;12.20;99.90;;;;;;5078157;28;20463;-56
2022/10/03 01:14:37;;;;;;;10.70;9.10;;;12.20;99.90;;;;;;5088808;28;20987;-56
2022/10/03 01:17:17;;;;;;;8.77;7.90;;;12.30;99.90;;;;;;5090953;28;20432;-56
2022/10/03 01:20:09;;;;;;;13.43;8.67;;;12.20;99.90;;;;;;5091525;28;20416;-55
2022/10/03 01:23:17;;;;;;;8.73;7.93;;;12.20;99.90;;;;;;5089190;28;20463;-56
2022/10/03 01:25:53;;;;;;;11.10;8.40;;;12.10;99.90;;;;;;5087719;28;20455;-56
2022/10/03 01:31:33;;;;;;;10.73;9.63;;;12.00;99.90;;;;;;5091471;28;20585;-56
2022/10/03 01:34:07;;;;;;;13.77;8.10;;;12.00;99.90;;;;;;5091284;28;20423;-56
2022/10/03 01:36:45;;;;;;;9.50;8.57;;;12.00;99.90;;;;;;5089934;28;20435;-55
2022/10/03 01:39:16;;;;;;;11.43;8.20;;;11.90;99.90;;;;;;5095729;28;20947;-56
2022/10/03 01:41:52;;;;;;;12.23;8.80;;;11.90;99.90;;;;;;5095058;28;20467;-56
2022/10/03 01:44:24;;;;;;;9.67;8.67;;;11.90;99.90;;;;;;5093375;28;20435;-56
2022/10/03 01:46:58;;;;;;;11.57;10.00;;;11.90;99.90;;;;;;5095990;28;20511;-56
2022/10/03 01:49:31;;;;;;;10.20;9.30;;;11.90;99.90;;;;;;5095145;28;20474;-56
2022/10/03 01:52:05;;;;;;;11.57;10.07;;;11.90;99.90;;;;;;5093436;28;20467;-57
2022/10/03 01:54:43;;;;;;;10.13;9.20;;;11.90;99.90;;;;;;5095267;28;20442;-56
2022/10/03 01:57:20;;;;;;;11.23;10.03;;;11.90;99.90;;;;;;5094684;28;20420;-56
2022/10/03 01:59:55;;;;;;;10.77;9.63;;;11.90;99.90;;;;;;5092625;28;20451;-56
2022/10/03 02:02:31;;;;;;;12.00;10.43;;;11.90;99.90;;;;;;5094908;28;20463;-56
2022/10/03 02:05:06;;;;;;;13.43;11.10;;;11.90;99.90;;;;;;5094520;28;20420;-56
2022/10/03 02:07:43;;;;;;;15.83;11.00;;;12.00;99.90;;;;;;5094029;28;20798;-56
2022/10/03 02:10:23;;;;;;;13.50;11.57;;;12.20;99.90;;;;;;5094446;28;20463;-56
2022/10/03 02:13:00;;;;;;;11.70;10.67;;;12.10;99.90;;;;;;5093320;28;20510;-56
2022/10/03 02:15:40;;;;;;;11.50;10.30;;;12.10;99.90;;;;;;5095282;28;20433;-55
2022/10/03 02:18:16;;;;;;;12.97;11.57;;;12.10;99.90;;;;;;5094296;28;20463;-56
2022/10/03 02:20:48;;;;;;;12.83;10.77;;;12.10;99.90;;;;;;5093174;28;20431;-56
2022/10/03 02:23:26;;;;;;;14.60;11.63;;;12.10;99.90;;;;;;5094686;28;20444;-56
2022/10/03 02:26:03;;;;;;;13.70;12.20;;;12.20;99.90;;;;;;5095315;28;20515;-56
2022/10/03 02:28:50;;;;;;;11.73;10.60;;;12.20;99.90;;;;;;5092370;28;20463;-56
2022/10/03 02:32:00;;;;;;;13.73;10.47;;;12.10;99.90;;;;;;5094298;28;20876;-56
2022/10/03 02:35:06;;;;;;;12.93;11.67;;;12.10;99.90;;;;;;5084362;28;20447;-56
2022/10/03 02:37:53;;;;;;;12.20;10.20;;;12.20;99.90;;;;;;5094332;28;20535;-56
2022/10/03 02:41:06;;;;;;;13.10;11.67;;;12.10;99.90;;;;;;5092883;28;20906;-56
2022/10/03 02:44:09;;;;;;;11.33;10.20;;;12.20;99.90;;;;;;5085658;28;20457;-56
2022/10/03 02:47:24;;;;;;;16.33;11.83;;;12.20;99.90;;;;;;5094211;28;20447;-56
2022/10/03 02:50:18;;;;;;;13.17;11.80;;;12.20;99.90;;;;;;5008719;28;20791;-56
2022/10/03 02:53:16;;;;;;;13.20;11.27;;;12.20;99.90;;;;;;5088957;28;20985;-56
2022/10/03 02:56:05;;;;;;;12.80;10.73;;;12.10;99.90;;;;;;5094908;28;20737;-56
2022/10/03 02:59:03;;;;;;;12.63;11.33;;;12.10;99.90;;;;;;5092641;28;20525;-56
2022/10/03 03:01:51;;;;;;;13.93;11.53;;;12.10;99.90;;;;;;5094714;28;20885;-56
2022/10/03 03:05:01;;;;;;;12.70;11.40;;;12.20;99.90;;;;;;5094327;28;20434;-56
2022/10/03 03:07:43;;;;;;;15.90;11.67;;;12.20;99.90;;;;;;5094187;28;20784;-56
2022/10/03 03:10:40;;;;;;;23.63;12.00;;;12.10;99.90;;;;;;5093557;28;20558;-55
2022/10/03 03:13:39;;;;;;;14.87;11.33;;;12.10;99.90;;;;;;5091187;28;20463;-56
2022/10/03 03:16:40;;;;;;;21.70;12.53;;;12.00;99.90;;;;;;5093319;28;20447;-56
2022/10/03 03:19:42;;;;;;;14.83;12.40;;;12.10;99.90;;;;;;5092608;28;20453;-56
2022/10/03 03:22:26;;;;;;;16.30;11.97;;;12.10;99.90;;;;;;5093782;28;20467;-55
2022/10/03 03:25:12;;;;;;;12.70;11.40;;;12.10;99.90;;;;;;5094089;28;20496;-56
2022/10/03 03:27:50;;;;;;;12.20;10.93;;;12.00;99.90;;;;;;5091218;28;21002;-56
2022/10/03 03:30:22;;;;;;;16.17;13.03;;;12.00;99.90;;;;;;5094005;28;20490;-56
2022/10/03 03:33:01;;;;;;;11.60;10.53;;;12.10;99.90;;;;;;5093961;28;20895;-56
2022/10/03 03:35:44;;;;;;;14.10;11.10;;;12.10;99.90;;;;;;5090399;28;20482;-56
2022/10/03 03:38:24;;;;;;;13.17;11.80;;;12.10;99.90;;;;;;5092161;28;20432;-56
2022/10/03 03:41:07;;;;;;;11.60;10.40;;;12.10;99.90;;;;;;5092345;28;20436;-54
2022/10/03 03:43:48;;;;;;;12.57;11.23;;;11.90;99.90;;;;;;5091769;28;20427;-55
2022/10/03 03:46:32;;;;;;;15.57;12.90;;;11.90;99.90;;;;;;5094076;28;20427;-55
2022/10/03 03:49:30;;;;;;;12.33;11.20;;;12.00;99.90;;;;;;5089378;28;20975;-56
2022/10/03 03:52:12;;;;;;;16.70;12.10;;;12.00;99.90;;;;;;5091401;28;20509;-55
2022/10/03 03:55:15;;;;;;;13.43;12.10;;;12.10;99.90;;;;;;5053352;28;20436;-55
2022/10/03 03:58:18;;;;;;;17.43;11.40;;;12.10;99.90;;;;;;5037733;28;20448;-56
2022/10/03 04:01:10;;;;;;;16.43;12.20;;;12.00;99.90;;;;;;5051845;28;20452;-55
2022/10/03 04:03:54;;;;;;;15.53;11.37;;;12.00;99.90;;;;;;5040735;28;20496;-55
2022/10/03 04:06:35;;;;;;;14.17;12.60;;;12.00;99.90;;;;;;5052899;28;20457;-56
2022/10/03 04:09:25;;;;;;;13.70;11.53;;;12.00;99.90;;;;;;5052518;28;20484;-56
2022/10/03 04:12:04;;;;;;;14.30;12.40;;;11.90;99.90;;;;;;5050404;28;20479;-55
2022/10/03 04:15:06;;;;;;;14.77;11.50;;;12.00;99.90;;;;;;5052892;28;20983;-56
2022/10/03 04:21:20;;;;;;;13.27;10.50;;;12.00;99.90;;;;;;5039265;28;20437;-56
2022/10/03 04:24:04;;;;;;;13.43;10.57;;;11.90;99.90;;;;;;5051343;28;20916;-56
2022/10/03 04:26:47;;;;;;;14.00;10.57;;;11.90;99.90;;;;;;5050386;28;20440;-56
2022/10/03 04:29:43;;;;;;;10.97;8.90;;;11.90;99.90;;;;;;5052185;28;20808;-56
2022/10/03 04:32:26;;;;;;;11.57;10.37;;;11.90;99.90;;;;;;5051101;28;20487;-56
2022/10/03 04:35:12;;;;;;;12.87;9.40;;;11.90;99.90;;;;;;5050167;28;20429;-55
2022/10/03 04:37:44;;;;;;;17.60;10.77;;;11.90;99.90;;;;;;5052091;28;20440;-56
2022/10/03 04:40:25;;;;;;;11.60;9.87;;;11.90;99.90;;;;;;5051432;28;20444;-56
2022/10/03 04:43:08;;;;;;;11.67;10.50;;;12.00;99.90;;;;;;5049744;28;20538;-55
2022/10/03 04:45:48;;;;;;;14.80;9.60;;;12.00;99.90;;;;;;5052114;28;20529;-56
2022/10/03 04:48:27;;;;;;;15.10;9.50;;;12.00;99.90;;;;;;5050422;28;20499;-56
2022/10/03 04:51:07;;;;;;;15.37;10.07;;;12.00;99.90;;;;;;5052296;28;20469;-55
2022/10/03 04:53:45;;;;;;;11.17;9.90;;;11.90;99.90;;;;;;5078400;28;20475;-56
2022/10/03 04:56:29;;;;;;;17.83;11.40;;;11.90;99.90;;;;;;5090054;28;20431;-56
2022/10/03 04:59:04;;;;;;;13.90;9.47;;;11.90;99.90;;;;;;5092161;28;20435;-56
2022/10/03 05:01:40;;;;;;;11.77;9.27;;;11.90;99.90;;;;;;5092151;28;20765;-56
2022/10/03 05:04:18;;;;;;;13.67;10.57;;;11.90;99.90;;;;;;5090390;28;20427;-56
2022/10/03 05:06:59;;;;;;;12.83;8.83;;;11.90;99.90;;;;;;5092193;28;20762;-56
2022/10/03 05:09:36;;;;;;;12.67;9.57;;;11.90;99.90;;;;;;5091168;28;20958;-55
2022/10/03 05:12:13;;;;;;;13.33;8.57;;;11.90;99.90;;;;;;5090797;28;20466;-55
2022/10/03 05:14:55;;;;;;;11.70;9.87;;;11.90;99.90;;;;;;5096616;28;20431;-59
2022/10/03 05:17:28;;;;;;;12.57;9.47;;;11.90;99.90;;;;;;5096227;28;20433;-56
2022/10/03 05:20:14;;;;;;;10.57;8.67;;;11.90;99.90;;;;;;5093921;28;20429;-56
2022/10/03 05:22:55;;;;;;;12.00;9.00;;;11.90;99.90;;;;;;5096058;28;20463;-56
2022/10/03 05:25:34;;;;;;;10.60;8.80;;;11.90;99.90;;;;;;5093470;28;21068;-56
2022/10/03 05:28:14;;;;;;;14.87;9.20;;;11.90;99.90;;;;;;5095985;28;20519;-55
2022/10/03 05:30:48;;;;;;;11.50;9.07;;;11.90;99.90;;;;;;5095948;28;20483;-55
2022/10/03 05:33:25;;;;;;;16.13;10.23;;;11.90;99.90;;;;;;5093640;28;20875;-56
2022/10/03 05:36:11;;;;;;;18.97;10.87;;;11.90;99.90;;;;;;5096117;28;20603;-55
2022/10/03 05:39:20;;;;;;;15.27;10.63;;;11.90;99.90;;;;;;5095018;28;20431;-55
2022/10/03 05:41:53;;;;;;;18.27;11.40;;;11.90;99.90;;;;;;5093291;28;20989;-56
2022/10/03 05:44:30;;;;;;;15.77;12.00;;;11.90;99.90;;;;;;5095839;28;20424;-56
2022/10/03 05:47:03;;;;;;;17.93;12.90;;;11.80;99.90;;;;;;5095415;28;20455;-56
2022/10/03 05:49:57;;;;;;;15.90;14.13;;;11.80;99.90;;;;;;5093817;28;20496;-56
2022/10/03 05:52:40;;;;;;;20.87;14.60;;;11.90;99.90;;;;;;5095122;28;20483;-56
2022/10/03 05:55:45;;;;;;;22.20;15.57;;;11.90;99.90;;;;;;5093586;28;20477;-56
2022/10/03 05:58:34;;;;;;;19.20;13.50;;;11.80;99.90;;;;;;5082180;28;20455;-56
2022/10/03 06:01:36;;;;;;;25.00;14.80;;;11.90;99.90;;;;;;5094433;28;20455;-56
2022/10/03 06:04:40;;;;;;;25.23;15.73;;;11.80;99.90;;;;;;5072526;28;20447;-56
2022/10/03 06:07:20;;;;;;;26.70;15.23;;;11.80;99.90;;;;;;5095157;28;20898;-55
2022/10/03 06:10:25;;;;;;;26.20;16.83;;;11.80;99.90;;;;;;5093664;28;20477;-55
2022/10/03 06:13:12;;;;;;;29.40;14.40;;;11.80;99.90;;;;;;5095044;28;20471;-56
2022/10/03 06:15:53;;;;;;;25.00;16.00;;;11.90;99.90;;;;;;5095472;28;20499;-55
2022/10/03 06:18:58;;;;;;;20.97;16.93;;;11.90;99.90;;;;;;5093499;28;20443;-56
2022/10/03 06:21:58;;;;;;;21.47;15.83;;;11.90;99.90;;;;;;5088250;28;20479;-56
2022/10/03 06:25:10;;;;;;;19.47;16.17;;;12.00;99.90;;;;;;5091696;28;20502;-55
2022/10/03 06:28:20;;;;;;;17.63;14.30;;;11.90;99.90;;;;;;5046563;28;20937;-55
2022/10/03 06:31:15;;;;;;;27.00;19.70;;;11.90;99.90;;;;;;5095101;28;20577;-56
2022/10/03 06:34:21;;;;;;;18.57;16.63;;;12.00;99.90;;;;;;5092714;28;20428;-55
2022/10/03 06:37:16;;;;;;;20.60;16.20;;;12.00;99.90;;;;;;5094716;28;20428;-56
2022/10/03 06:40:41;;;;;;;19.53;15.50;;;12.00;99.90;;;;;;5091480;28;20944;-55
2022/10/03 06:43:35;;;;;;;20.97;14.93;;;12.10;99.90;;;;;;5011061;28;20474;-56
2022/10/03 06:46:33;;;;;;;19.97;14.70;;;12.30;99.90;;;;;;5089092;28;20448;-56
2022/10/03 06:49:33;;;;;;;25.40;15.00;;;12.20;99.90;;;;;;5091723;28;20877;-56
2022/10/03 06:52:18;;;;;;;19.07;15.53;;;12.20;99.90;;;;;;5090519;28;20482;-56
2022/10/03 06:55:26;;;;;;;21.47;14.10;;;12.30;99.90;;;;;;5091309;28;20440;-55
2022/10/03 06:58:36;;;;;;;21.53;14.50;;;12.20;99.90;;;;;;5071577;28;20530;-55
2022/10/03 07:01:26;;;;;;;19.17;14.20;;;12.20;99.90;;;;;;5093857;28;20496;-56
2022/10/03 07:04:39;;;;;;;20.47;15.10;;;12.10;99.90;;;;;;5093461;28;20435;-55
2022/10/03 07:07:32;;;;;;;22.07;14.17;;;12.10;99.90;;;;;;5074757;28;20487;-56
2022/10/03 07:10:21;;;;;;;26.67;16.50;;;12.20;99.90;;;;;;5091171;28;20532;-56
2022/10/03 07:13:21;;;;;;;21.27;15.43;;;12.30;99.90;;;;;;5090096;28;21070;-56
2022/10/03 07:16:17;;;;;;;24.47;15.93;;;12.20;99.90;;;;;;5092983;28;20446;-56
2022/10/03 07:19:18;;;;;;;25.73;17.70;;;12.10;99.90;;;;;;5092862;28;20439;-56
2022/10/03 07:22:27;;;;;;;18.40;15.40;;;12.20;99.90;;;;;;5092913;28;20823;-55
2022/10/03 07:25:28;;;;;;;29.40;17.87;;;12.30;99.90;;;;;;5091296;28;20450;-56
2022/10/03 07:28:31;;;;;;;23.37;15.10;;;12.30;99.90;;;;;;5090175;28;20494;-56
2022/10/03 07:31:08;;;;;;;25.07;16.07;;;12.30;99.90;;;;;;5089118;28;20483;-56
2022/10/03 07:34:10;;;;;;;27.07;16.87;;;12.30;99.90;;;;;;5093021;28;20469;-56
2022/10/03 07:40:08;;;;;;;32.23;16.93;;;12.40;99.90;;;;;;5090378;28;20415;-55
2022/10/03 07:42:52;;;;;;;24.70;16.27;;;12.40;99.90;;;;;;5093744;28;20462;-55
2022/10/03 07:45:33;;;;;;;26.37;16.13;;;12.30;99.90;;;;;;5093345;28;20514;-56
2022/10/03 07:48:48;;;;;;;19.10;15.90;;;12.30;99.90;;;;;;5092737;28;20506;-57
2022/10/03 07:51:23;;;;;;;26.07;15.93;;;12.40;99.90;;;;;;5031746;28;20490;-57
2022/10/03 07:54:20;;;;;;;22.57;16.00;;;12.40;99.90;;;;;;5089966;28;20566;-55
2022/10/03 07:57:21;;;;;;;21.53;16.40;;;12.50;99.90;;;;;;5092674;28;20894;-57
2022/10/03 08:00:18;;;;;;;19.20;15.67;;;12.60;99.90;;;;;;5088982;28;20467;-56
2022/10/03 08:03:15;;;;;;;23.13;14.90;;;12.70;99.90;;;;;;5090336;28;20889;-55
2022/10/03 08:05:55;;;;;;;23.33;15.97;;;12.80;99.90;;;;;;5057319;28;20447;-56
2022/10/03 08:08:51;;;;;;;25.23;15.33;;;12.70;99.90;;;;;;5090051;28;20451;-56
2022/10/03 08:12:12;;;;;;;18.00;13.90;;;12.70;99.90;;;;;;5091545;28;20479;-56
2022/10/03 08:14:49;;;;;;;17.17;13.07;;;12.80;99.90;;;;;;5091650;28;20802;-55
2022/10/03 08:17:48;;;;;;;16.07;12.37;;;12.70;99.90;;;;;;5090247;28;20920;-55
2022/10/03 08:20:46;;;;;;;20.60;14.40;;;12.60;99.90;;;;;;5091387;28;20443;-56
2022/10/03 08:23:54;;;;;;;18.43;14.13;;;12.70;99.90;;;;;;5069899;28;20479;-55
2022/10/03 08:26:37;;;;;;;20.10;13.70;;;12.70;99.90;;;;;;5090295;28;20451;-56
2022/10/03 08:29:52;;;;;;;18.20;14.17;;;12.70;99.90;;;;;;5092611;28;20434;-56
2022/10/03 08:32:58;;;;;;;17.40;14.50;;;12.60;99.90;;;;;;5084176;28;20478;-56
2022/10/03 08:35:34;;;;;;;20.17;13.90;;;12.50;99.90;;;;;;5086054;28;20463;-56
2022/10/03 08:38:32;;;;;;;17.40;13.57;;;12.60;99.90;;;;;;5090318;28;20431;-56
2022/10/03 08:41:51;;;;;;;14.37;12.27;;;12.50;99.90;;;;;;5090413;28;20428;-56
2022/10/03 08:44:45;;;;;;;18.77;13.60;;;12.50;99.90;;;;;;5092138;28;20424;-56
2022/10/03 08:47:34;;;;;;;16.30;12.47;;;12.40;99.90;;;;;;5091004;28;20604;-56
2022/10/03 08:50:24;;;;;;;17.30;12.53;;;12.50;99.90;;;;;;5092176;28;20935;-56
2022/10/03 08:53:23;;;;;;;16.80;12.73;;;12.60;99.90;;;;;;5089687;28;20489;-56
2022/10/03 08:55:59;;;;;;;14.53;11.80;;;12.70;99.90;;;;;;5091372;28;20420;-56
2022/10/03 08:59:05;;;;;;;22.03;12.50;;;12.80;99.90;;;;;;5091571;28;20788;-58
2022/10/03 09:01:55;;;;;;;13.83;11.80;;;12.90;99.90;;;;;;5089622;28;20467;-55
2022/10/03 09:05:02;;;;;;;16.77;10.90;;;12.90;99.90;;;;;;5046182;28;20516;-55
2022/10/03 09:08:09;;;;;;;19.17;11.00;;;13.00;99.90;;;;;;5066951;28;20938;-57
2022/10/03 09:10:52;;;;;;;16.20;10.97;;;13.10;99.90;;;;;;5090856;28;20991;-56
2022/10/03 09:13:51;;;;;;;13.70;9.77;;;13.20;99.90;;;;;;5091688;28;20467;-58
2022/10/03 09:16:43;;;;;;;13.13;9.33;;;13.20;99.90;;;;;;5089067;28;20819;-56
2022/10/03 09:19:36;;;;;;;11.00;9.30;;;13.30;99.90;;;;;;5090923;28;20448;-56
2022/10/03 09:22:36;;;;;;;14.50;9.00;;;13.30;99.90;;;;;;5065688;28;21129;-55
2022/10/03 09:25:22;;;;;;;10.33;9.33;;;13.50;99.90;;;;;;5091505;28;20442;-56
2022/10/03 09:28:23;;;;;;;16.73;9.40;;;13.70;99.90;;;;;;5091392;28;20498;-56
2022/10/03 09:31:02;;;;;;;11.90;8.13;;;13.80;99.90;;;;;;5089507;28;20487;-56
2022/10/03 09:34:11;;;;;;;9.77;8.77;;;13.90;99.90;;;;;;5091097;28;20432;-56
2022/10/03 09:37:20;;;;;;;13.03;9.03;;;14.20;99.90;;;;;;5090114;28;20431;-56
2022/10/03 09:40:29;;;;;;;12.50;7.40;;;14.40;99.90;;;;;;5090077;28;20470;-56
2022/10/03 09:43:34;;;;;;;13.50;8.50;;;14.60;99.90;;;;;;5090929;28;20472;-57
2022/10/03 09:46:44;;;;;;;8.60;7.07;;;14.60;99.90;;;;;;5089968;28;20431;-56
2022/10/03 09:49:47;;;;;;;10.90;7.10;;;14.70;99.90;;;;;;5026565;28;20451;-56
2022/10/03 09:52:38;;;;;;;11.00;6.83;;;14.80;99.90;;;;;;5088547;28;20482;-56
2022/10/03 09:55:25;;;;;;;11.50;6.30;;;15.80;99.90;;;;;;5091228;28;20530;-56
2022/10/03 09:58:31;;;;;;;9.83;5.50;;;17.00;99.90;;;;;;5091239;28;20423;-57
2022/10/03 10:01:18;;;;;;;9.77;5.00;;;18.20;99.90;;;;;;5089380;28;20455;-56
2022/10/03 10:04:36;;;;;;;7.60;5.07;;;19.00;99.90;;;;;;5094567;28;20457;-57
2022/10/03 10:07:26;;;;;;;12.80;5.03;;;18.90;99.90;;;;;;5092821;28;20428;-58
2022/10/03 10:10:18;;;;;;;8.90;4.80;;;18.60;99.90;;;;;;5055419;28;20929;-56
2022/10/03 10:13:12;;;;;;;6.47;4.87;;;18.00;99.90;;;;;;5077521;28;20482;-56
2022/10/03 10:16:30;;;;;;;10.27;4.83;;;17.80;99.90;;;;;;5092029;28;20458;-56
2022/10/03 10:19:34;;;;;;;9.10;4.83;;;18.10;99.90;;;;;;5073881;28;20542;-56
2022/10/03 10:22:28;;;;;;;10.73;5.37;;;19.10;99.90;;;;;;5071642;28;20481;-56
2022/10/03 10:25:31;;;;;;;10.07;5.23;;;19.00;99.90;;;;;;5080276;28;20457;-59
2022/10/03 10:28:40;;;;;;;9.67;5.17;;;18.50;99.90;;;;;;5094472;28;20773;-57
2022/10/03 10:31:43;;;;;;;10.07;5.00;;;17.50;99.90;;;;;;5054317;28;20483;-57
2022/10/03 10:34:55;;;;;;;13.07;5.60;;;17.10;99.90;;;;;;5060001;28;20454;-58
2022/10/03 10:38:01;;;;;;;6.30;5.40;;;16.50;99.90;;;;;;5091759;28;20929;-57
2022/10/03 10:41:13;;;;;;;7.40;4.60;;;16.40;99.90;;;;;;5093135;28;20428;-57
2022/10/03 10:44:22;;;;;;;12.23;6.10;;;16.30;99.90;;;;;;5057259;28;20473;-57
2022/10/03 10:47:13;;;;;;;9.93;5.33;;;16.10;99.90;;;;;;5029080;28;20448;-56
2022/10/03 10:50:22;;;;;;;7.23;5.27;;;16.30;99.90;;;;;;5093382;28;20428;-57
2022/10/03 10:53:27;;;;;;;7.63;5.30;;;16.60;99.90;;;;;;5090804;28;20486;-57
2022/10/03 10:56:35;;;;;;;9.00;5.90;;;16.30;99.90;;;;;;5093422;28;20496;-57
2022/10/03 11:00:01;;;;;;;9.00;5.40;;;15.90;99.90;;;;;;5077163;28;20953;-56
2022/10/03 11:03:13;;;;;;;12.03;5.87;;;15.90;99.90;;;;;;5050556;28;20465;-56
2022/10/03 11:06:05;;;;;;;8.67;6.10;;;15.70;99.90;;;;;;5054973;28;20477;-56
2022/10/03 11:09:08;;;;;;;10.47;6.43;;;16.60;99.90;;;;;;5094455;28;20430;-57
2022/10/03 11:12:24;;;;;;;8.33;6.37;;;16.80;99.90;;;;;;5058808;28;21090;-57
2022/10/03 11:15:28;;;;;;;8.40;6.30;;;17.10;99.90;;;;;;5092346;28;20507;-56
2022/10/03 11:18:25;;;;;;;7.60;5.30;;;16.70;99.90;;;;;;5094200;28;20451;-57
2022/10/03 11:21:39;;;;;;;9.40;6.97;;;16.50;99.90;;;;;;5091440;28;20448;-56
2022/10/03 11:24:48;;;;;;;9.90;5.73;;;16.50;99.90;;;;;;5011911;28;20509;-56
2022/10/03 11:27:54;;;;;;;8.93;5.33;;;16.40;99.90;;;;;;5072627;28;20442;-57
2022/10/03 11:30:43;;;;;;;10.00;6.80;;;16.20;99.90;;;;;;5094124;28;20454;-57
2022/10/03 11:33:43;;;;;;;12.67;5.83;;;16.20;99.90;;;;;;5093604;28;20466;-57
2022/10/03 11:36:44;;;;;;;8.67;4.83;;;16.60;99.90;;;;;;5091780;28;20519;-57
2022/10/03 11:39:21;;;;;;;11.00;5.77;;;17.70;99.90;;;;;;5093023;28;20439;-56
2022/10/03 11:41:56;;;;;;;10.07;5.00;;;18.00;99.90;;;;;;5093313;28;20551;-56
2022/10/03 11:44:27;;;;;;;6.70;4.90;;;18.20;99.90;;;;;;5091473;28;20424;-56
2022/10/03 11:47:20;;;;;;;10.80;5.13;;;17.70;99.90;;;;;;5093101;28;20432;-56
2022/10/03 11:50:23;;;;;;;5.03;4.53;;;17.50;99.90;;;;;;5092575;28;20858;-55
2022/10/03 11:53:07;;;;;;;7.70;3.90;;;17.00;99.90;;;;;;5092868;28;20532;-55
2022/10/03 11:55:40;;;;;;;6.33;4.17;;;18.30;99.90;;;;;;5093447;28;20454;-56
2022/10/03 11:58:32;;;;;;;8.90;4.60;;;18.70;99.90;;;;;;5091524;28;20431;-56
2022/10/03 12:01:14;;;;;;;5.67;4.23;;;19.60;99.90;;;;;;5093080;28;20459;-56
2022/10/03 12:03:51;;;;;;;3.97;3.57;;;20.40;99.90;;;;;;5093315;28;20432;-56
2022/10/03 12:09:34;;;;;;;6.40;4.07;;;20.40;99.90;;;;;;5111781;28;20918;-56
2022/10/03 12:12:10;;;;;;;8.53;4.23;;;19.60;99.90;;;;;;5112058;28;20489;-63
2022/10/03 12:14:45;;;;;;;6.00;4.10;;;19.20;99.90;;;;;;5112356;28;20427;-56
2022/10/03 12:17:15;;;;;;;7.23;4.80;;;18.70;99.90;;;;;;5112261;28;20486;-56
2022/10/03 12:19:56;;;;;;;10.17;4.17;;;18.50;99.90;;;;;;5110020;28;20809;-56
2022/10/03 12:22:39;;;;;;;7.73;3.90;;;18.00;99.90;;;;;;5111342;28;20465;-55
2022/10/03 12:25:18;;;;;;;7.97;4.80;;;17.30;99.90;;;;;;5112688;28;20481;-55
2022/10/03 12:27:54;;;;;;;6.87;4.20;;;17.40;99.90;;;;;;5110166;28;20901;-55
2022/10/03 12:30:21;;;;;;;6.67;4.50;;;17.30;99.90;;;;;;5111983;28;20461;-56
2022/10/03 12:33:07;;;;;;;13.17;5.07;;;16.70;99.90;;;;;;5112250;28;20491;-55
2022/10/03 12:35:45;;;;;;;13.47;4.20;;;16.70;99.90;;;;;;5109943;28;20423;-56
2022/10/03 12:38:32;;;;;;;6.60;4.43;;;16.70;99.90;;;;;;5112913;28;20439;-56
2022/10/03 12:41:15;;;;;;;8.67;4.67;;;17.50;99.90;;;;;;5111797;28;20834;-56
2022/10/03 12:43:54;;;;;;;4.63;4.13;;;17.60;99.90;;;;;;5109215;28;20458;-56
2022/10/03 12:46:31;;;;;;;9.30;4.93;;;18.10;99.90;;;;;;5111656;28;20431;-56
2022/10/03 12:49:05;;;;;;;9.03;4.50;;;19.10;99.90;;;;;;5110972;28;20430;-55
2022/10/03 12:51:51;;;;;;;10.20;4.40;;;19.20;99.90;;;;;;5111266;28;20517;-55
2022/10/03 12:54:34;;;;;;;9.90;3.73;;;18.40;99.90;;;;;;5111774;28;21052;-55
2022/10/03 12:57:32;;;;;;;6.23;4.03;;;18.40;99.90;;;;;;5109456;28;20434;-58
2022/10/03 13:00:05;;;;;;;6.70;3.60;;;18.40;99.90;;;;;;5098255;28;20505;-56
2022/10/03 13:02:39;;;;;;;6.60;3.63;;;19.00;99.90;;;;;;5111509;28;20454;-56
2022/10/03 13:05:32;;;;;;;7.00;3.80;;;19.10;99.90;;;;;;5109950;28;20431;-56
2022/10/03 13:08:06;;;;;;;6.60;3.77;;;19.20;99.90;;;;;;5111312;28;20438;-56
2022/10/03 13:10:40;;;;;;;8.77;4.00;;;19.00;99.90;;;;;;5112064;28;20426;-55
2022/10/03 13:13:25;;;;;;;6.10;3.60;;;18.90;99.90;;;;;;5109517;28;20487;-56
2022/10/03 13:16:20;;;;;;;7.90;4.50;;;19.10;99.90;;;;;;5111905;28;20822;-56
2022/10/03 13:19:03;;;;;;;6.10;4.10;;;19.10;99.90;;;;;;5109025;28;20798;-55
2022/10/03 13:21:48;;;;;;;7.47;3.53;;;17.90;99.90;;;;;;5111735;28;20463;-55
2022/10/03 13:24:30;;;;;;;8.10;3.47;;;17.20;99.90;;;;;;5110733;28;20469;-56
2022/10/03 13:27:06;;;;;;;6.57;4.10;;;16.80;99.90;;;;;;5109223;28;20521;-56
2022/10/03 13:29:39;;;;;;;6.70;4.07;;;16.70;99.90;;;;;;5111268;28;20430;-56
2022/10/03 13:32:15;;;;;;;6.50;4.00;;;16.60;99.90;;;;;;5111017;28;20569;-56
2022/10/03 13:38:15;;;;;;;4.90;3.97;;;16.40;99.90;;;;;;5114944;28;20441;-55
2022/10/03 13:40:49;;;;;;;5.87;3.80;;;16.50;99.90;;;;;;5098687;28;20496;-56
2022/10/03 13:43:24;;;;;;;6.73;4.20;;;16.40;99.90;;;;;;5114480;28;20454;-55
2022/10/03 13:45:55;;;;;;;4.63;3.47;;;16.30;99.90;;;;;;5113380;28;20478;-55
2022/10/03 13:48:26;;;;;;;7.47;4.30;;;16.60;99.90;;;;;;5113287;28;20480;-55
2022/10/03 13:51:00;;;;;;;4.77;4.13;;;16.50;99.90;;;;;;5115699;28;20545;-55
2022/10/03 13:53:49;;;;;;;8.63;4.57;;;16.30;99.90;;;;;;5114496;28;20500;-55
2022/10/03 13:56:31;;;;;;;8.50;4.80;;;16.30;99.90;;;;;;5113060;28;20454;-56
2022/10/03 13:59:04;;;;;;;12.73;4.57;;;16.60;99.90;;;;;;5115299;28;20411;-57
2022/10/03 14:01:43;;;;;;;11.30;4.10;;;16.70;99.90;;;;;;5114402;28;20561;-55
2022/10/03 14:04:42;;;;;;;7.73;3.70;;;16.60;99.90;;;;;;5113078;28;20435;-55
2022/10/03 14:07:18;;;;;;;7.13;4.00;;;16.60;99.90;;;;;;5107814;28;20477;-55
2022/10/03 14:10:11;;;;;;;11.37;3.80;;;16.40;99.90;;;;;;5114502;28;20426;-55
2022/10/03 14:12:55;;;;;;;4.63;3.70;;;16.50;99.90;;;;;;5112651;28;21047;-55
2022/10/03 14:15:33;;;;;;;6.23;3.73;;;16.70;99.90;;;;;;5114278;28;20426;-55
2022/10/03 14:18:10;;;;;;;8.20;3.40;;;16.70;99.90;;;;;;5112728;28;20423;-58
2022/10/03 14:21:02;;;;;;;6.50;3.60;;;16.70;99.90;;;;;;5114825;28;20434;-55
2022/10/03 14:23:36;;;;;;;5.27;3.67;;;16.70;99.90;;;;;;5114417;28;20534;-55
2022/10/03 14:26:13;;;;;;;6.40;3.57;;;16.60;99.90;;;;;;5113704;28;20505;-55
2022/10/03 14:28:49;;;;;;;5.30;4.20;;;16.40;99.90;;;;;;5115159;28;20428;-56
2022/10/03 14:31:24;;;;;;;7.17;3.70;;;16.60;99.90;;;;;;5115581;28;20658;-55
2022/10/03 14:34:00;;;;;;;5.83;3.60;;;16.50;99.90;;;;;;5113653;27;20942;-56
2022/10/03 14:36:38;;;;;;;4.73;3.73;;;16.50;99.90;;;;;;5115697;28;20444;-56
2022/10/03 14:39:34;;;;;;;5.23;3.73;;;16.50;99.90;;;;;;5115513;28;20526;-55
2022/10/03 14:42:20;;;;;;;4.43;4.00;;;16.50;99.90;;;;;;5112848;28;20976;-56